sensor_id;sensor_type;location;lat;lon;timestamp;temperature;humidity
25991;DHT22;13779;-33.886;151.198;2022-10-16T00:02:02;20.10;99.90
25991;DHT22;13779;-33.886;151.198;2022-10-16T00:04:32;20.10;99.90
25991;DHT22;13779;-33.886;151.198;2022-10-16T00:07:02;20.10;99.90
25991;DHT22;13779;-33.886;151.198;2022-10-16T00:09:32;20.10;99.90
25991;DHT22;13779;-33.886;151.198;2022-10-16T00:12:02;20.20;99.90
25991;DHT22;13779;-33.886;151.198;2022-10-16T00:14:33;20.30;99.90
25991;DHT22;13779;-33.886;151.198;2022-10-16T00:17:03;20.20;99.90
25991;DHT22;13779;-33.886;151.198;2022-10-16T00:19:33;20.20;99.90
25991;DHT22;13779;-33.886;151.198;2022-10-16T00:22:03;20.40;99.90
25991;DHT22;13779;-33.886;151.198;2022-10-16T00:24:33;20.50;99.90
25991;DHT22;13779;-33.886;151.198;2022-10-16T00:27:03;20.60;99.90
25991;DHT22;13779;-33.886;151.198;2022-10-16T00:29:33;20.60;99.90
25991;DHT22;13779;-33.886;151.198;2022-10-16T00:32:04;20.70;99.90
25991;DHT22;13779;-33.886;151.198;2022-10-16T00:34:34;20.70;99.90
25991;DHT22;13779;-33.886;151.198;2022-10-16T00:37:04;20.70;99.90
25991;DHT22;13779;-33.886;151.198;2022-10-16T00:39:34;20.80;99.90
25991;DHT22;13779;-33.886;151.198;2022-10-16T00:42:04;20.80;99.90
25991;DHT22;13779;-33.886;151.198;2022-10-16T00:45:00;20.80;99.90
25991;DHT22;13779;-33.886;151.198;2022-10-16T00:47:42;20.90;99.90
25991;DHT22;13779;-33.886;151.198;2022-10-16T00:50:34;20.80;99.90
25991;DHT22;13779;-33.886;151.198;2022-10-16T00:53:04;20.70;99.90
25991;DHT22;13779;-33.886;151.198;2022-10-16T00:55:35;20.70;99.90
25991;DHT22;13779;-33.886;151.198;2022-10-16T00:58:08;20.70;99.90
25991;DHT22;13779;-33.886;151.198;2022-10-16T01:00:39;20.80;99.90
25991;DHT22;13779;-33.886;151.198;2022-10-16T01:03:33;20.80;99.90
25991;DHT22;13779;-33.886;151.198;2022-10-16T01:09:33;20.60;99.90
25991;DHT22;13779;-33.886;151.198;2022-10-16T01:12:29;20.50;99.90
25991;DHT22;13779;-33.886;151.198;2022-10-16T01:21:03;20.40;99.90
25991;DHT22;13779;-33.886;151.198;2022-10-16T01:27:27;20.50;99.90
25991;DHT22;13779;-33.886;151.198;2022-10-16T01:30:07;20.60;99.90
25991;DHT22;13779;-33.886;151.198;2022-10-16T01:33:03;20.60;99.90
25991;DHT22;13779;-33.886;151.198;2022-10-16T01:35:47;20.70;99.90
25991;DHT22;13779;-33.886;151.198;2022-10-16T01:38:34;20.70;99.90
25991;DHT22;13779;-33.886;151.198;2022-10-16T01:41:36;20.80;99.90
25991;DHT22;13779;-33.886;151.198;2022-10-16T01:44:20;20.80;99.90
25991;DHT22;13779;-33.886;151.198;2022-10-16T01:46:53;20.80;99.90
25991;DHT22;13779;-33.886;151.198;2022-10-16T01:49:27;20.70;99.90
25991;DHT22;13779;-33.886;151.198;2022-10-16T01:52:02;20.80;99.90
25991;DHT22;13779;-33.886;151.198;2022-10-16T01:54:36;20.90;99.90
25991;DHT22;13779;-33.886;151.198;2022-10-16T01:57:08;20.70;99.90
25991;DHT22;13779;-33.886;151.198;2022-10-16T01:59:46;20.70;99.90
25991;DHT22;13779;-33.886;151.198;2022-10-16T02:02:18;20.60;99.90
25991;DHT22;13779;-33.886;151.198;2022-10-16T02:04:53;20.50;99.90
25991;DHT22;13779;-33.886;151.198;2022-10-16T02:07:24;20.60;99.90
25991;DHT22;13779;-33.886;151.198;2022-10-16T02:09:55;20.60;99.90
25991;DHT22;13779;-33.886;151.198;2022-10-16T02:12:31;20.50;99.90
25991;DHT22;13779;-33.886;151.198;2022-10-16T02:15:02;20.60;99.90
25991;DHT22;13779;-33.886;151.198;2022-10-16T02:17:33;20.70;99.90
25991;DHT22;13779;-33.886;151.198;2022-10-16T02:20:04;20.70;99.90
25991;DHT22;13779;-33.886;151.198;2022-10-16T02:22:45;20.70;99.90
25991;DHT22;13779;-33.886;151.198;2022-10-16T02:25:30;20.80;99.90
25991;DHT22;13779;-33.886;151.198;2022-10-16T02:28:08;20.90;99.90
25991;DHT22;13779;-33.886;151.198;2022-10-16T02:30:41;20.80;99.90
25991;DHT22;13779;-33.886;151.198;2022-10-16T02:33:13;20.70;99.90
25991;DHT22;13779;-33.886;151.198;2022-10-16T02:35:47;20.70;99.90
25991;DHT22;13779;-33.886;151.198;2022-10-16T02:38:21;20.60;99.90
25991;DHT22;13779;-33.886;151.198;2022-10-16T02:40:52;20.50;99.90
25991;DHT22;13779;-33.886;151.198;2022-10-16T02:43:24;20.50;99.90
25991;DHT22;13779;-33.886;151.198;2022-10-16T02:45:54;20.50;99.90
25991;DHT22;13779;-33.886;151.198;2022-10-16T02:48:25;20.60;99.90
25991;DHT22;13779;-33.886;151.198;2022-10-16T02:50:56;20.70;99.90
25991;DHT22;13779;-33.886;151.198;2022-10-16T02:53:26;20.70;99.90
25991;DHT22;13779;-33.886;151.198;2022-10-16T02:55:57;20.50;99.90
25991;DHT22;13779;-33.886;151.198;2022-10-16T02:58:27;20.60;99.90
25991;DHT22;13779;-33.886;151.198;2022-10-16T03:00:57;20.70;99.90
25991;DHT22;13779;-33.886;151.198;2022-10-16T03:03:28;20.90;99.90
25991;DHT22;13779;-33.886;151.198;2022-10-16T03:05:59;20.80;99.90
25991;DHT22;13779;-33.886;151.198;2022-10-16T03:08:29;20.90;99.90
25991;DHT22;13779;-33.886;151.198;2022-10-16T03:11:00;20.70;99.90
25991;DHT22;13779;-33.886;151.198;2022-10-16T03:13:30;20.70;99.90
25991;DHT22;13779;-33.886;151.198;2022-10-16T03:16:01;20.70;99.90
25991;DHT22;13779;-33.886;151.198;2022-10-16T03:18:31;20.80;99.90
25991;DHT22;13779;-33.886;151.198;2022-10-16T03:21:02;20.70;99.90
25991;DHT22;13779;-33.886;151.198;2022-10-16T03:23:32;20.80;99.90
25991;DHT22;13779;-33.886;151.198;2022-10-16T03:26:03;20.70;99.90
25991;DHT22;13779;-33.886;151.198;2022-10-16T03:28:33;20.80;99.90
25991;DHT22;13779;-33.886;151.198;2022-10-16T03:31:04;20.70;99.90
25991;DHT22;13779;-33.886;151.198;2022-10-16T03:33:34;20.70;99.90
25991;DHT22;13779;-33.886;151.198;2022-10-16T03:36:05;20.70;99.90
25991;DHT22;13779;-33.886;151.198;2022-10-16T03:38:36;20.50;99.90
25991;DHT22;13779;-33.886;151.198;2022-10-16T03:41:06;20.50;99.90
25991;DHT22;13779;-33.886;151.198;2022-10-16T03:43:37;20.40;99.90
25991;DHT22;13779;-33.886;151.198;2022-10-16T03:46:07;20.60;99.90
25991;DHT22;13779;-33.886;151.198;2022-10-16T03:48:38;20.60;99.90
25991;DHT22;13779;-33.886;151.198;2022-10-16T03:51:08;20.50;99.90
25991;DHT22;13779;-33.886;151.198;2022-10-16T03:53:39;20.50;99.90
25991;DHT22;13779;-33.886;151.198;2022-10-16T03:56:09;20.50;99.90
25991;DHT22;13779;-33.886;151.198;2022-10-16T03:58:40;20.50;99.90
25991;DHT22;13779;-33.886;151.198;2022-10-16T04:01:10;20.60;99.90
25991;DHT22;13779;-33.886;151.198;2022-10-16T04:03:40;20.60;99.90
25991;DHT22;13779;-33.886;151.198;2022-10-16T04:06:11;20.70;99.90
25991;DHT22;13779;-33.886;151.198;2022-10-16T04:08:43;20.70;99.90
25991;DHT22;13779;-33.886;151.198;2022-10-16T04:11:14;20.70;99.90
25991;DHT22;13779;-33.886;151.198;2022-10-16T04:13:44;20.70;99.90
25991;DHT22;13779;-33.886;151.198;2022-10-16T04:16:14;20.70;99.90
25991;DHT22;13779;-33.886;151.198;2022-10-16T04:18:45;20.80;99.90
25991;DHT22;13779;-33.886;151.198;2022-10-16T04:21:16;20.80;99.90
25991;DHT22;13779;-33.886;151.198;2022-10-16T04:23:47;20.90;99.90
25991;DHT22;13779;-33.886;151.198;2022-10-16T04:26:18;20.90;99.90
25991;DHT22;13779;-33.886;151.198;2022-10-16T04:28:48;21.10;99.90
25991;DHT22;13779;-33.886;151.198;2022-10-16T04:31:19;21.00;99.90
25991;DHT22;13779;-33.886;151.198;2022-10-16T04:33:49;21.00;99.90
25991;DHT22;13779;-33.886;151.198;2022-10-16T04:36:20;20.90;99.90
25991;DHT22;13779;-33.886;151.198;2022-10-16T04:38:51;20.90;99.90
25991;DHT22;13779;-33.886;151.198;2022-10-16T04:41:21;20.90;99.90
25991;DHT22;13779;-33.886;151.198;2022-10-16T04:43:52;20.70;99.90
25991;DHT22;13779;-33.886;151.198;2022-10-16T04:46:22;20.70;99.90
25991;DHT22;13779;-33.886;151.198;2022-10-16T04:48:53;20.60;99.90
25991;DHT22;13779;-33.886;151.198;2022-10-16T04:51:24;20.70;99.90
25991;DHT22;13779;-33.886;151.198;2022-10-16T04:53:54;20.70;99.90
25991;DHT22;13779;-33.886;151.198;2022-10-16T04:56:25;20.70;99.90
25991;DHT22;13779;-33.886;151.198;2022-10-16T04:58:55;20.70;99.90
25991;DHT22;13779;-33.886;151.198;2022-10-16T05:01:26;20.60;99.90
25991;DHT22;13779;-33.886;151.198;2022-10-16T05:03:56;20.60;99.90
25991;DHT22;13779;-33.886;151.198;2022-10-16T05:06:27;20.60;99.90
25991;DHT22;13779;-33.886;151.198;2022-10-16T05:08:57;20.50;99.90
25991;DHT22;13779;-33.886;151.198;2022-10-16T05:11:28;20.40;99.90
25991;DHT22;13779;-33.886;151.198;2022-10-16T05:13:58;20.40;99.90
25991;DHT22;13779;-33.886;151.198;2022-10-16T05:16:29;20.40;99.90
25991;DHT22;13779;-33.886;151.198;2022-10-16T05:19:00;20.30;99.90
25991;DHT22;13779;-33.886;151.198;2022-10-16T05:21:51;20.30;99.90
25991;DHT22;13779;-33.886;151.198;2022-10-16T05:24:21;20.30;99.90
25991;DHT22;13779;-33.886;151.198;2022-10-16T05:26:52;20.30;99.90
25991;DHT22;13779;-33.886;151.198;2022-10-16T05:29:22;20.30;99.90
25991;DHT22;13779;-33.886;151.198;2022-10-16T05:31:53;20.30;99.90
25991;DHT22;13779;-33.886;151.198;2022-10-16T05:34:24;20.30;99.90
25991;DHT22;13779;-33.886;151.198;2022-10-16T05:36:54;20.20;99.90
25991;DHT22;13779;-33.886;151.198;2022-10-16T05:39:25;20.20;99.90
25991;DHT22;13779;-33.886;151.198;2022-10-16T05:41:55;20.20;99.90
25991;DHT22;13779;-33.886;151.198;2022-10-16T05:44:25;20.10;99.90
25991;DHT22;13779;-33.886;151.198;2022-10-16T05:46:56;20.10;99.90
25991;DHT22;13779;-33.886;151.198;2022-10-16T05:49:26;20.10;99.90
25991;DHT22;13779;-33.886;151.198;2022-10-16T05:51:57;20.00;99.90
25991;DHT22;13779;-33.886;151.198;2022-10-16T05:54:27;20.00;99.90
25991;DHT22;13779;-33.886;151.198;2022-10-16T05:56:58;20.00;99.90
25991;DHT22;13779;-33.886;151.198;2022-10-16T05:59:28;19.90;99.90
25991;DHT22;13779;-33.886;151.198;2022-10-16T06:01:59;19.80;99.90
25991;DHT22;13779;-33.886;151.198;2022-10-16T06:04:29;19.90;99.90
25991;DHT22;13779;-33.886;151.198;2022-10-16T06:07:00;19.90;99.90
25991;DHT22;13779;-33.886;151.198;2022-10-16T06:09:30;19.80;99.90
25991;DHT22;13779;-33.886;151.198;2022-10-16T06:12:00;19.80;99.90
25991;DHT22;13779;-33.886;151.198;2022-10-16T06:14:31;19.70;99.90
25991;DHT22;13779;-33.886;151.198;2022-10-16T06:17:02;19.60;99.90
25991;DHT22;13779;-33.886;151.198;2022-10-16T06:19:33;19.70;99.90
25991;DHT22;13779;-33.886;151.198;2022-10-16T06:22:03;19.80;99.90
25991;DHT22;13779;-33.886;151.198;2022-10-16T06:24:34;19.80;99.90
25991;DHT22;13779;-33.886;151.198;2022-10-16T06:27:05;19.80;99.90
25991;DHT22;13779;-33.886;151.198;2022-10-16T06:29:35;19.80;99.90
25991;DHT22;13779;-33.886;151.198;2022-10-16T06:32:06;19.80;99.90
25991;DHT22;13779;-33.886;151.198;2022-10-16T06:34:36;19.80;99.90
25991;DHT22;13779;-33.886;151.198;2022-10-16T06:37:07;19.80;99.90
25991;DHT22;13779;-33.886;151.198;2022-10-16T06:39:38;19.80;99.90
25991;DHT22;13779;-33.886;151.198;2022-10-16T06:42:08;19.70;99.90
25991;DHT22;13779;-33.886;151.198;2022-10-16T06:44:39;19.70;99.90
25991;DHT22;13779;-33.886;151.198;2022-10-16T06:47:09;19.70;99.90
25991;DHT22;13779;-33.886;151.198;2022-10-16T06:49:40;19.70;99.90
25991;DHT22;13779;-33.886;151.198;2022-10-16T06:52:10;19.70;99.90
25991;DHT22;13779;-33.886;151.198;2022-10-16T06:54:41;19.60;99.90
25991;DHT22;13779;-33.886;151.198;2022-10-16T06:57:11;19.60;99.90
25991;DHT22;13779;-33.886;151.198;2022-10-16T06:59:42;19.60;99.90
25991;DHT22;13779;-33.886;151.198;2022-10-16T07:02:13;19.60;99.90
25991;DHT22;13779;-33.886;151.198;2022-10-16T07:04:44;19.60;99.90
25991;DHT22;13779;-33.886;151.198;2022-10-16T07:07:15;19.60;99.90
25991;DHT22;13779;-33.886;151.198;2022-10-16T07:09:45;19.60;99.90
25991;DHT22;13779;-33.886;151.198;2022-10-16T07:12:16;19.60;99.90
25991;DHT22;13779;-33.886;151.198;2022-10-16T07:14:46;19.60;99.90
25991;DHT22;13779;-33.886;151.198;2022-10-16T07:17:17;19.50;99.90
25991;DHT22;13779;-33.886;151.198;2022-10-16T07:19:47;19.50;99.90
25991;DHT22;13779;-33.886;151.198;2022-10-16T07:22:19;19.50;99.90
25991;DHT22;13779;-33.886;151.198;2022-10-16T07:24:49;19.50;99.90
25991;DHT22;13779;-33.886;151.198;2022-10-16T07:27:21;19.50;99.90
25991;DHT22;13779;-33.886;151.198;2022-10-16T07:29:53;19.40;99.90
25991;DHT22;13779;-33.886;151.198;2022-10-16T07:32:23;19.40;99.90
25991;DHT22;13779;-33.886;151.198;2022-10-16T07:34:55;19.40;99.90
25991;DHT22;13779;-33.886;151.198;2022-10-16T07:37:26;19.30;99.90
25991;DHT22;13779;-33.886;151.198;2022-10-16T07:39:56;19.30;99.90
25991;DHT22;13779;-33.886;151.198;2022-10-16T07:42:27;19.30;99.90
25991;DHT22;13779;-33.886;151.198;2022-10-16T07:44:58;19.20;99.90
25991;DHT22;13779;-33.886;151.198;2022-10-16T07:47:29;19.30;99.90
25991;DHT22;13779;-33.886;151.198;2022-10-16T07:49:59;19.30;99.90
25991;DHT22;13779;-33.886;151.198;2022-10-16T07:52:30;19.30;99.90
25991;DHT22;13779;-33.886;151.198;2022-10-16T07:55:00;19.30;99.90
25991;DHT22;13779;-33.886;151.198;2022-10-16T07:57:30;19.20;99.90
25991;DHT22;13779;-33.886;151.198;2022-10-16T08:00:01;19.20;99.90
25991;DHT22;13779;-33.886;151.198;2022-10-16T08:02:32;19.20;99.90
25991;DHT22;13779;-33.886;151.198;2022-10-16T08:05:02;19.20;99.90
25991;DHT22;13779;-33.886;151.198;2022-10-16T08:07:33;19.10;99.90
25991;DHT22;13779;-33.886;151.198;2022-10-16T08:10:04;19.10;99.90
25991;DHT22;13779;-33.886;151.198;2022-10-16T08:12:35;19.10;99.90
25991;DHT22;13779;-33.886;151.198;2022-10-16T08:15:06;19.10;99.90
25991;DHT22;13779;-33.886;151.198;2022-10-16T08:17:36;19.10;99.90
25991;DHT22;13779;-33.886;151.198;2022-10-16T08:20:07;19.10;99.90
25991;DHT22;13779;-33.886;151.198;2022-10-16T08:22:38;19.10;99.90
25991;DHT22;13779;-33.886;151.198;2022-10-16T08:25:09;19.00;99.90
25991;DHT22;13779;-33.886;151.198;2022-10-16T08:27:39;19.00;99.90
25991;DHT22;13779;-33.886;151.198;2022-10-16T08:30:10;19.00;99.90
25991;DHT22;13779;-33.886;151.198;2022-10-16T08:32:41;19.00;99.90
25991;DHT22;13779;-33.886;151.198;2022-10-16T08:35:12;19.00;99.90
25991;DHT22;13779;-33.886;151.198;2022-10-16T08:37:44;19.00;99.90
25991;DHT22;13779;-33.886;151.198;2022-10-16T08:40:26;19.00;99.90
25991;DHT22;13779;-33.886;151.198;2022-10-16T08:43:18;19.00;99.90
25991;DHT22;13779;-33.886;151.198;2022-10-16T08:46:19;19.00;99.90
25991;DHT22;13779;-33.886;151.198;2022-10-16T08:48:57;19.00;99.90
25991;DHT22;13779;-33.886;151.198;2022-10-16T08:51:34;19.00;99.90
25991;DHT22;13779;-33.886;151.198;2022-10-16T08:54:17;19.00;99.90
25991;DHT22;13779;-33.886;151.198;2022-10-16T08:56:53;19.00;99.90
25991;DHT22;13779;-33.886;151.198;2022-10-16T08:59:24;19.00;99.90
25991;DHT22;13779;-33.886;151.198;2022-10-16T09:01:54;18.90;99.90
25991;DHT22;13779;-33.886;151.198;2022-10-16T09:23:37;18.90;99.90
25991;DHT22;13779;-33.886;151.198;2022-10-16T09:26:12;18.80;99.90
25991;DHT22;13779;-33.886;151.198;2022-10-16T09:28:43;18.80;99.90
25991;DHT22;13779;-33.886;151.198;2022-10-16T09:31:19;18.80;99.90
25991;DHT22;13779;-33.886;151.198;2022-10-16T09:33:59;18.80;99.90
25991;DHT22;13779;-33.886;151.198;2022-10-16T09:36:40;18.80;99.90
25991;DHT22;13779;-33.886;151.198;2022-10-16T09:39:12;18.80;99.90
25991;DHT22;13779;-33.886;151.198;2022-10-16T09:41:44;18.80;99.90
25991;DHT22;13779;-33.886;151.198;2022-10-16T09:44:27;18.80;99.90
25991;DHT22;13779;-33.886;151.198;2022-10-16T09:47:28;18.70;99.90
25991;DHT22;13779;-33.886;151.198;2022-10-16T09:50:13;18.70;99.90
25991;DHT22;13779;-33.886;151.198;2022-10-16T09:52:49;18.70;99.90
25991;DHT22;13779;-33.886;151.198;2022-10-16T09:55:19;18.70;99.90
25991;DHT22;13779;-33.886;151.198;2022-10-16T09:57:50;18.70;99.90
25991;DHT22;13779;-33.886;151.198;2022-10-16T10:00:22;18.70;99.90
25991;DHT22;13779;-33.886;151.198;2022-10-16T10:02:54;18.70;99.90
25991;DHT22;13779;-33.886;151.198;2022-10-16T10:05:28;18.70;99.90
25991;DHT22;13779;-33.886;151.198;2022-10-16T10:08:02;18.70;99.90
25991;DHT22;13779;-33.886;151.198;2022-10-16T10:10:42;18.80;99.90
25991;DHT22;13779;-33.886;151.198;2022-10-16T10:13:24;18.70;99.90
25991;DHT22;13779;-33.886;151.198;2022-10-16T10:15:56;18.70;99.90
25991;DHT22;13779;-33.886;151.198;2022-10-16T10:18:26;18.60;99.90
25991;DHT22;13779;-33.886;151.198;2022-10-16T10:21:01;18.60;99.90
25991;DHT22;13779;-33.886;151.198;2022-10-16T10:23:31;18.60;99.90
25991;DHT22;13779;-33.886;151.198;2022-10-16T10:26:31;18.50;99.90
25991;DHT22;13779;-33.886;151.198;2022-10-16T10:37:48;18.40;99.90
25991;DHT22;13779;-33.886;151.198;2022-10-16T10:45:44;18.40;99.90
25991;DHT22;13779;-33.886;151.198;2022-10-16T10:51:13;18.50;99.90
25991;DHT22;13779;-33.886;151.198;2022-10-16T10:54:06;18.50;99.90
25991;DHT22;13779;-33.886;151.198;2022-10-16T10:56:48;18.50;99.90
25991;DHT22;13779;-33.886;151.198;2022-10-16T10:59:38;18.50;99.90
25991;DHT22;13779;-33.886;151.198;2022-10-16T11:05:03;18.60;99.90
25991;DHT22;13779;-33.886;151.198;2022-10-16T11:07:45;18.60;99.90
25991;DHT22;13779;-33.886;151.198;2022-10-16T11:13:24;18.60;99.90
25991;DHT22;13779;-33.886;151.198;2022-10-16T11:16:01;18.60;99.90
25991;DHT22;13779;-33.886;151.198;2022-10-16T11:21:20;18.50;99.90
25991;DHT22;13779;-33.886;151.198;2022-10-16T11:24:30;18.60;99.90
25991;DHT22;13779;-33.886;151.198;2022-10-16T11:27:09;18.50;99.90
25991;DHT22;13779;-33.886;151.198;2022-10-16T11:30:01;18.50;99.90
25991;DHT22;13779;-33.886;151.198;2022-10-16T11:35:45;18.50;99.90
25991;DHT22;13779;-33.886;151.198;2022-10-16T11:38:50;18.50;99.90
25991;DHT22;13779;-33.886;151.198;2022-10-16T11:41:32;18.50;99.90
25991;DHT22;13779;-33.886;151.198;2022-10-16T11:44:24;18.50;99.90
25991;DHT22;13779;-33.886;151.198;2022-10-16T11:50:53;18.50;99.90
25991;DHT22;13779;-33.886;151.198;2022-10-16T11:53:45;18.50;99.90
25991;DHT22;13779;-33.886;151.198;2022-10-16T11:56:19;18.50;99.90
25991;DHT22;13779;-33.886;151.198;2022-10-16T12:04:19;18.50;99.90
25991;DHT22;13779;-33.886;151.198;2022-10-16T12:09:38;18.50;99.90
25991;DHT22;13779;-33.886;151.198;2022-10-16T12:12:36;18.40;99.90
25991;DHT22;13779;-33.886;151.198;2022-10-16T12:15:21;18.40;99.90
25991;DHT22;13779;-33.886;151.198;2022-10-16T12:18:21;18.40;99.90
25991;DHT22;13779;-33.886;151.198;2022-10-16T12:20:56;18.40;99.90
25991;DHT22;13779;-33.886;151.198;2022-10-16T12:23:46;18.30;99.90
25991;DHT22;13779;-33.886;151.198;2022-10-16T12:26:25;18.30;99.90
25991;DHT22;13779;-33.886;151.198;2022-10-16T12:29:10;18.40;99.90
25991;DHT22;13779;-33.886;151.198;2022-10-16T12:31:47;18.30;99.90
25991;DHT22;13779;-33.886;151.198;2022-10-16T12:34:45;18.30;99.90
25991;DHT22;13779;-33.886;151.198;2022-10-16T12:37:31;18.30;99.90
25991;DHT22;13779;-33.886;151.198;2022-10-16T12:42:52;18.20;99.90
25991;DHT22;13779;-33.886;151.198;2022-10-16T12:45:30;18.20;99.90
25991;DHT22;13779;-33.886;151.198;2022-10-16T12:48:03;18.20;99.90
25991;DHT22;13779;-33.886;151.198;2022-10-16T12:50:36;18.20;99.90
25991;DHT22;13779;-33.886;151.198;2022-10-16T12:53:24;18.10;99.90
25991;DHT22;13779;-33.886;151.198;2022-10-16T12:56:16;18.10;99.90
25991;DHT22;13779;-33.886;151.198;2022-10-16T12:59:28;18.10;99.90
25991;DHT22;13779;-33.886;151.198;2022-10-16T13:07:26;18.00;99.90
25991;DHT22;13779;-33.886;151.198;2022-10-16T13:10:17;18.00;99.90
25991;DHT22;13779;-33.886;151.198;2022-10-16T13:13:12;18.00;99.90
25991;DHT22;13779;-33.886;151.198;2022-10-16T13:15:58;18.00;99.90
25991;DHT22;13779;-33.886;151.198;2022-10-16T13:30:02;17.90;99.90
25991;DHT22;13779;-33.886;151.198;2022-10-16T13:32:39;17.80;99.90
25991;DHT22;13779;-33.886;151.198;2022-10-16T13:35:23;17.90;99.90
25991;DHT22;13779;-33.886;151.198;2022-10-16T13:41:03;17.90;99.90
25991;DHT22;13779;-33.886;151.198;2022-10-16T13:43:39;17.90;99.90
25991;DHT22;13779;-33.886;151.198;2022-10-16T13:46:17;17.90;99.90
25991;DHT22;13779;-33.886;151.198;2022-10-16T13:49:02;17.80;99.90
25991;DHT22;13779;-33.886;151.198;2022-10-16T13:51:33;17.80;99.90
25991;DHT22;13779;-33.886;151.198;2022-10-16T13:54:04;17.80;99.90
25991;DHT22;13779;-33.886;151.198;2022-10-16T13:56:34;17.80;99.90
25991;DHT22;13779;-33.886;151.198;2022-10-16T13:59:07;17.90;99.90
25991;DHT22;13779;-33.886;151.198;2022-10-16T14:01:54;17.90;99.90
25991;DHT22;13779;-33.886;151.198;2022-10-16T14:04:31;17.80;99.90
25991;DHT22;13779;-33.886;151.198;2022-10-16T14:07:02;17.90;99.90
25991;DHT22;13779;-33.886;151.198;2022-10-16T14:09:33;17.90;99.90
25991;DHT22;13779;-33.886;151.198;2022-10-16T14:12:10;17.90;99.90
25991;DHT22;13779;-33.886;151.198;2022-10-16T14:14:46;17.90;99.90
25991;DHT22;13779;-33.886;151.198;2022-10-16T14:17:28;17.90;99.90
25991;DHT22;13779;-33.886;151.198;2022-10-16T14:20:02;17.90;99.90
25991;DHT22;13779;-33.886;151.198;2022-10-16T14:22:42;17.80;99.90
25991;DHT22;13779;-33.886;151.198;2022-10-16T14:25:26;17.80;99.90
25991;DHT22;13779;-33.886;151.198;2022-10-16T14:28:05;17.80;99.90
25991;DHT22;13779;-33.886;151.198;2022-10-16T14:30:56;17.80;99.90
25991;DHT22;13779;-33.886;151.198;2022-10-16T14:38:38;17.80;99.90
25991;DHT22;13779;-33.886;151.198;2022-10-16T14:41:09;17.80;99.90
25991;DHT22;13779;-33.886;151.198;2022-10-16T14:43:44;17.80;99.90
25991;DHT22;13779;-33.886;151.198;2022-10-16T14:46:21;17.80;99.90
25991;DHT22;13779;-33.886;151.198;2022-10-16T14:51:40;17.90;99.90
25991;DHT22;13779;-33.886;151.198;2022-10-16T14:54:13;17.90;99.90
25991;DHT22;13779;-33.886;151.198;2022-10-16T14:56:48;17.90;99.90
25991;DHT22;13779;-33.886;151.198;2022-10-16T15:02:28;17.90;99.90
25991;DHT22;13779;-33.886;151.198;2022-10-16T15:05:13;17.90;99.90
25991;DHT22;13779;-33.886;151.198;2022-10-16T15:07:45;17.80;99.90
25991;DHT22;13779;-33.886;151.198;2022-10-16T15:10:17;17.80;99.90
25991;DHT22;13779;-33.886;151.198;2022-10-16T15:12:48;17.80;99.90
25991;DHT22;13779;-33.886;151.198;2022-10-16T15:18:11;17.90;99.90
25991;DHT22;13779;-33.886;151.198;2022-10-16T15:20:44;17.90;99.90
25991;DHT22;13779;-33.886;151.198;2022-10-16T15:23:19;17.90;99.90
25991;DHT22;13779;-33.886;151.198;2022-10-16T15:25:52;17.90;99.90
25991;DHT22;13779;-33.886;151.198;2022-10-16T15:28:23;17.90;99.90
25991;DHT22;13779;-33.886;151.198;2022-10-16T15:30:56;17.80;99.90
25991;DHT22;13779;-33.886;151.198;2022-10-16T15:33:29;17.80;99.90
25991;DHT22;13779;-33.886;151.198;2022-10-16T15:36:05;17.80;99.90
25991;DHT22;13779;-33.886;151.198;2022-10-16T15:38:36;17.70;99.90
25991;DHT22;13779;-33.886;151.198;2022-10-16T15:41:06;17.60;99.90
25991;DHT22;13779;-33.886;151.198;2022-10-16T15:43:37;17.50;99.90
25991;DHT22;13779;-33.886;151.198;2022-10-16T15:46:16;17.40;99.90
25991;DHT22;13779;-33.886;151.198;2022-10-16T15:48:49;17.30;99.90
25991;DHT22;13779;-33.886;151.198;2022-10-16T15:51:19;17.20;99.90
25991;DHT22;13779;-33.886;151.198;2022-10-16T15:53:49;17.20;99.90
25991;DHT22;13779;-33.886;151.198;2022-10-16T15:56:20;17.10;99.90
25991;DHT22;13779;-33.886;151.198;2022-10-16T15:58:52;17.10;99.90
25991;DHT22;13779;-33.886;151.198;2022-10-16T16:01:23;17.10;99.90
25991;DHT22;13779;-33.886;151.198;2022-10-16T16:03:54;17.10;99.90
25991;DHT22;13779;-33.886;151.198;2022-10-16T16:06:24;17.20;99.90
25991;DHT22;13779;-33.886;151.198;2022-10-16T16:08:55;17.20;99.90
25991;DHT22;13779;-33.886;151.198;2022-10-16T16:11:25;17.20;99.90
25991;DHT22;13779;-33.886;151.198;2022-10-16T16:13:55;17.20;99.90
25991;DHT22;13779;-33.886;151.198;2022-10-16T16:16:26;17.20;99.90
25991;DHT22;13779;-33.886;151.198;2022-10-16T16:18:57;17.20;99.90
25991;DHT22;13779;-33.886;151.198;2022-10-16T16:21:27;17.10;99.90
25991;DHT22;13779;-33.886;151.198;2022-10-16T16:23:58;17.10;99.90
25991;DHT22;13779;-33.886;151.198;2022-10-16T16:26:29;17.10;99.90
25991;DHT22;13779;-33.886;151.198;2022-10-16T16:29:06;17.10;99.90
25991;DHT22;13779;-33.886;151.198;2022-10-16T16:31:37;17.10;99.90
25991;DHT22;13779;-33.886;151.198;2022-10-16T16:34:07;17.10;99.90
25991;DHT22;13779;-33.886;151.198;2022-10-16T16:36:38;17.10;99.90
25991;DHT22;13779;-33.886;151.198;2022-10-16T16:39:09;17.00;99.90
25991;DHT22;13779;-33.886;151.198;2022-10-16T16:41:40;17.00;99.90
25991;DHT22;13779;-33.886;151.198;2022-10-16T16:44:11;17.00;99.90
25991;DHT22;13779;-33.886;151.198;2022-10-16T16:46:43;17.00;99.90
25991;DHT22;13779;-33.886;151.198;2022-10-16T16:49:14;16.90;99.90
25991;DHT22;13779;-33.886;151.198;2022-10-16T16:51:44;17.00;99.90
25991;DHT22;13779;-33.886;151.198;2022-10-16T16:54:15;16.90;99.90
25991;DHT22;13779;-33.886;151.198;2022-10-16T16:56:46;17.00;99.90
25991;DHT22;13779;-33.886;151.198;2022-10-16T16:59:19;17.00;99.90
25991;DHT22;13779;-33.886;151.198;2022-10-16T17:01:50;17.00;99.90
25991;DHT22;13779;-33.886;151.198;2022-10-16T17:04:24;16.90;99.90
25991;DHT22;13779;-33.886;151.198;2022-10-16T17:06:55;16.80;99.90
25991;DHT22;13779;-33.886;151.198;2022-10-16T17:09:25;16.80;99.90
25991;DHT22;13779;-33.886;151.198;2022-10-16T17:11:56;16.80;99.90
25991;DHT22;13779;-33.886;151.198;2022-10-16T17:14:27;16.80;99.90
25991;DHT22;13779;-33.886;151.198;2022-10-16T17:16:58;16.80;99.90
25991;DHT22;13779;-33.886;151.198;2022-10-16T17:19:28;16.70;99.90
25991;DHT22;13779;-33.886;151.198;2022-10-16T17:21:59;16.70;99.90